Burr Oak, Indiana
Current Conditions -  °F | °C
As of 4:35 PM on Sunday 23 Nov 2014 (Local Time) from KGWB Reporting Station
Moderate Rain Moderate Rain  
Wind Chill: 52°   Ceiling: 2400
Heat Index: 52°   Visibility: 2.5mi
Dew Point: 48°   Wind: 6mph
Humidity: 88%   Direction: 120°ESE
Pressure: 29.6"   Gusts: NA
Location:  41.3469°N, 85.4059°W
Report Text: KGWB 232135Z AUTO 12005KT 2 1/2SM RA SCT019 OVC024 11/09 A2960 RMK AO2 P0017
Loading
Personal Weather Stations






























Interactive Weather Map New forecast layout! Learn more

10-Day Weather Forecast

Advertisements
Track Severe Weather on mobile